sensor_id;sensor_type;location;lat;lon;timestamp;P1;durP1;ratioP1;P2;durP2;ratioP2
6037;SDS011;3047;42.600;23.470;2023-08-08T00:00:11;1.00;;;1.00;;
6037;SDS011;3047;42.600;23.470;2023-08-08T00:02:38;1.10;;;1.10;;
6037;SDS011;3047;42.600;23.470;2023-08-08T00:05:06;1.08;;;1.08;;
6037;SDS011;3047;42.600;23.470;2023-08-08T00:07:33;1.02;;;1.02;;
6037;SDS011;3047;42.600;23.470;2023-08-08T00:10:01;1.17;;;1.15;;
6037;SDS011;3047;42.600;23.470;2023-08-08T00:12:28;1.10;;;1.10;;
6037;SDS011;3047;42.600;23.470;2023-08-08T00:14:55;1.20;;;1.20;;
6037;SDS011;3047;42.600;23.470;2023-08-08T00:17:22;1.00;;;1.00;;
6037;SDS011;3047;42.600;23.470;2023-08-08T00:19:48;1.20;;;1.20;;
6037;SDS011;3047;42.600;23.470;2023-08-08T00:22:15;1.13;;;1.13;;
6037;SDS011;3047;42.600;23.470;2023-08-08T00:24:42;1.20;;;1.20;;
6037;SDS011;3047;42.600;23.470;2023-08-08T00:27:10;1.20;;;1.20;;
6037;SDS011;3047;42.600;23.470;2023-08-08T00:29:37;1.30;;;1.30;;
6037;SDS011;3047;42.600;23.470;2023-08-08T00:32:04;1.40;;;1.40;;
6037;SDS011;3047;42.600;23.470;2023-08-08T00:34:30;1.10;;;1.10;;
6037;SDS011;3047;42.600;23.470;2023-08-08T00:36:57;1.13;;;1.13;;
6037;SDS011;3047;42.600;23.470;2023-08-08T00:39:24;1.20;;;1.20;;
6037;SDS011;3047;42.600;23.470;2023-08-08T00:41:50;1.27;;;1.27;;
6037;SDS011;3047;42.600;23.470;2023-08-08T00:44:19;1.10;;;1.10;;
6037;SDS011;3047;42.600;23.470;2023-08-08T00:46:45;1.75;;;1.20;;
6037;SDS011;3047;42.600;23.470;2023-08-08T00:49:12;1.50;;;1.50;;
6037;SDS011;3047;42.600;23.470;2023-08-08T00:51:39;0.95;;;0.95;;
6037;SDS011;3047;42.600;23.470;2023-08-08T00:54:06;1.10;;;1.10;;
6037;SDS011;3047;42.600;23.470;2023-08-08T00:56:34;2.05;;;1.95;;
6037;SDS011;3047;42.600;23.470;2023-08-08T00:59:02;1.30;;;1.30;;
6037;SDS011;3047;42.600;23.470;2023-08-08T01:01:31;1.08;;;1.08;;
6037;SDS011;3047;42.600;23.470;2023-08-08T01:03:58;1.10;;;1.10;;
6037;SDS011;3047;42.600;23.470;2023-08-08T01:06:29;1.20;;;1.20;;
6037;SDS011;3047;42.600;23.470;2023-08-08T01:09:03;1.20;;;1.20;;
6037;SDS011;3047;42.600;23.470;2023-08-08T01:11:35;1.42;;;1.42;;
6037;SDS011;3047;42.600;23.470;2023-08-08T01:14:03;1.25;;;1.25;;
6037;SDS011;3047;42.600;23.470;2023-08-08T01:16:35;1.00;;;1.00;;
6037;SDS011;3047;42.600;23.470;2023-08-08T01:19:02;0.60;;;0.60;;
6037;SDS011;3047;42.600;23.470;2023-08-08T01:21:30;0.90;;;0.90;;
6037;SDS011;3047;42.600;23.470;2023-08-08T01:24:12;1.27;;;1.27;;
6037;SDS011;3047;42.600;23.470;2023-08-08T01:26:44;1.08;;;1.08;;
6037;SDS011;3047;42.600;23.470;2023-08-08T01:29:12;1.93;;;1.93;;
6037;SDS011;3047;42.600;23.470;2023-08-08T01:31:38;1.23;;;1.23;;
6037;SDS011;3047;42.600;23.470;2023-08-08T01:34:05;1.40;;;1.40;;
6037;SDS011;3047;42.600;23.470;2023-08-08T01:36:33;1.20;;;1.20;;
6037;SDS011;3047;42.600;23.470;2023-08-08T01:39:03;1.17;;;1.07;;
6037;SDS011;3047;42.600;23.470;2023-08-08T01:41:35;1.00;;;1.00;;
6037;SDS011;3047;42.600;23.470;2023-08-08T01:44:04;1.10;;;1.10;;
6037;SDS011;3047;42.600;23.470;2023-08-08T01:46:32;1.02;;;1.02;;
6037;SDS011;3047;42.600;23.470;2023-08-08T01:49:01;1.17;;;1.17;;
6037;SDS011;3047;42.600;23.470;2023-08-08T01:51:28;1.05;;;1.05;;
6037;SDS011;3047;42.600;23.470;2023-08-08T01:53:54;0.93;;;0.93;;
6037;SDS011;3047;42.600;23.470;2023-08-08T01:56:21;0.95;;;0.95;;
6037;SDS011;3047;42.600;23.470;2023-08-08T01:58:49;1.13;;;1.13;;
6037;SDS011;3047;42.600;23.470;2023-08-08T02:01:16;1.40;;;1.40;;
6037;SDS011;3047;42.600;23.470;2023-08-08T02:03:43;1.20;;;1.20;;
6037;SDS011;3047;42.600;23.470;2023-08-08T02:06:10;1.00;;;1.00;;
6037;SDS011;3047;42.600;23.470;2023-08-08T02:08:37;0.97;;;0.97;;
6037;SDS011;3047;42.600;23.470;2023-08-08T02:11:04;0.98;;;0.98;;
6037;SDS011;3047;42.600;23.470;2023-08-08T02:13:30;1.23;;;1.23;;
6037;SDS011;3047;42.600;23.470;2023-08-08T02:15:59;1.25;;;1.25;;
6037;SDS011;3047;42.600;23.470;2023-08-08T02:18:25;1.30;;;1.30;;
6037;SDS011;3047;42.600;23.470;2023-08-08T02:20:52;1.00;;;1.00;;
6037;SDS011;3047;42.600;23.470;2023-08-08T02:23:19;1.00;;;1.00;;
6037;SDS011;3047;42.600;23.470;2023-08-08T02:25:45;1.10;;;1.10;;
6037;SDS011;3047;42.600;23.470;2023-08-08T02:28:12;1.37;;;1.37;;
6037;SDS011;3047;42.600;23.470;2023-08-08T02:30:39;1.40;;;1.40;;
6037;SDS011;3047;42.600;23.470;2023-08-08T02:33:07;1.30;;;1.30;;
6037;SDS011;3047;42.600;23.470;2023-08-08T02:35:36;1.30;;;1.20;;
6037;SDS011;3047;42.600;23.470;2023-08-08T02:38:02;1.10;;;1.10;;
6037;SDS011;3047;42.600;23.470;2023-08-08T02:40:29;1.00;;;1.00;;
6037;SDS011;3047;42.600;23.470;2023-08-08T02:42:57;1.20;;;1.20;;
6037;SDS011;3047;42.600;23.470;2023-08-08T02:45:24;1.20;;;1.20;;
6037;SDS011;3047;42.600;23.470;2023-08-08T02:47:51;1.03;;;1.03;;
6037;SDS011;3047;42.600;23.470;2023-08-08T02:50:19;1.20;;;1.20;;
6037;SDS011;3047;42.600;23.470;2023-08-08T02:52:45;1.40;;;1.40;;
6037;SDS011;3047;42.600;23.470;2023-08-08T02:55:12;1.37;;;1.37;;
6037;SDS011;3047;42.600;23.470;2023-08-08T02:57:39;1.10;;;1.10;;
6037;SDS011;3047;42.600;23.470;2023-08-08T03:00:06;1.57;;;1.57;;
6037;SDS011;3047;42.600;23.470;2023-08-08T03:02:36;1.47;;;1.47;;
6037;SDS011;3047;42.600;23.470;2023-08-08T03:05:03;1.50;;;1.50;;
6037;SDS011;3047;42.600;23.470;2023-08-08T03:07:32;1.20;;;1.20;;
6037;SDS011;3047;42.600;23.470;2023-08-08T03:09:59;1.30;;;1.30;;
6037;SDS011;3047;42.600;23.470;2023-08-08T03:12:26;1.10;;;1.10;;
6037;SDS011;3047;42.600;23.470;2023-08-08T03:14:53;1.70;;;1.70;;
6037;SDS011;3047;42.600;23.470;2023-08-08T03:17:20;1.10;;;1.10;;
6037;SDS011;3047;42.600;23.470;2023-08-08T03:19:46;1.23;;;1.23;;
6037;SDS011;3047;42.600;23.470;2023-08-08T03:22:13;1.40;;;1.40;;
6037;SDS011;3047;42.600;23.470;2023-08-08T03:24:41;1.50;;;1.50;;
6037;SDS011;3047;42.600;23.470;2023-08-08T03:27:08;1.90;;;1.80;;
6037;SDS011;3047;42.600;23.470;2023-08-08T03:29:35;1.17;;;1.17;;
6037;SDS011;3047;42.600;23.470;2023-08-08T03:32:02;1.30;;;1.30;;
6037;SDS011;3047;42.600;23.470;2023-08-08T03:34:29;1.70;;;1.70;;
6037;SDS011;3047;42.600;23.470;2023-08-08T03:36:56;1.50;;;1.40;;
6037;SDS011;3047;42.600;23.470;2023-08-08T03:39:23;1.40;;;1.40;;
6037;SDS011;3047;42.600;23.470;2023-08-08T03:41:51;1.20;;;1.20;;
6037;SDS011;3047;42.600;23.470;2023-08-08T03:44:17;1.20;;;1.20;;
6037;SDS011;3047;42.600;23.470;2023-08-08T03:46:44;1.47;;;1.47;;
6037;SDS011;3047;42.600;23.470;2023-08-08T03:49:11;1.00;;;1.00;;
6037;SDS011;3047;42.600;23.470;2023-08-08T03:51:37;1.10;;;1.10;;
6037;SDS011;3047;42.600;23.470;2023-08-08T03:54:04;1.37;;;1.37;;
6037;SDS011;3047;42.600;23.470;2023-08-08T03:56:31;1.40;;;1.40;;
6037;SDS011;3047;42.600;23.470;2023-08-08T03:58:59;1.10;;;1.10;;
6037;SDS011;3047;42.600;23.470;2023-08-08T04:01:26;1.07;;;1.07;;
6037;SDS011;3047;42.600;23.470;2023-08-08T04:03:53;1.17;;;1.17;;
6037;SDS011;3047;42.600;23.470;2023-08-08T04:06:19;1.63;;;1.63;;
6037;SDS011;3047;42.600;23.470;2023-08-08T04:08:46;1.10;;;1.10;;
6037;SDS011;3047;42.600;23.470;2023-08-08T04:11:13;1.30;;;1.30;;
6037;SDS011;3047;42.600;23.470;2023-08-08T04:13:39;1.13;;;1.13;;
6037;SDS011;3047;42.600;23.470;2023-08-08T04:16:08;1.70;;;1.70;;
6037;SDS011;3047;42.600;23.470;2023-08-08T04:18:34;1.13;;;1.13;;
6037;SDS011;3047;42.600;23.470;2023-08-08T04:21:01;1.40;;;1.40;;
6037;SDS011;3047;42.600;23.470;2023-08-08T04:23:28;1.50;;;1.50;;
6037;SDS011;3047;42.600;23.470;2023-08-08T04:25:54;1.80;;;1.80;;
6037;SDS011;3047;42.600;23.470;2023-08-08T04:28:21;1.37;;;1.37;;
6037;SDS011;3047;42.600;23.470;2023-08-08T04:30:48;1.20;;;1.20;;
6037;SDS011;3047;42.600;23.470;2023-08-08T04:33:16;2.07;;;2.07;;
6037;SDS011;3047;42.600;23.470;2023-08-08T04:35:43;1.50;;;1.50;;
6037;SDS011;3047;42.600;23.470;2023-08-08T04:38:10;1.10;;;1.10;;
6037;SDS011;3047;42.600;23.470;2023-08-08T04:40:37;0.90;;;0.90;;
6037;SDS011;3047;42.600;23.470;2023-08-08T04:43:03;2.00;;;2.00;;
6037;SDS011;3047;42.600;23.470;2023-08-08T04:45:30;1.10;;;1.10;;
6037;SDS011;3047;42.600;23.470;2023-08-08T04:47:57;0.83;;;0.83;;
6037;SDS011;3047;42.600;23.470;2023-08-08T04:50:25;1.47;;;1.47;;
6037;SDS011;3047;42.600;23.470;2023-08-08T04:52:52;1.07;;;1.07;;
6037;SDS011;3047;42.600;23.470;2023-08-08T04:55:18;1.10;;;1.10;;
6037;SDS011;3047;42.600;23.470;2023-08-08T04:57:45;1.13;;;1.13;;
6037;SDS011;3047;42.600;23.470;2023-08-08T05:00:13;1.00;;;1.00;;
6037;SDS011;3047;42.600;23.470;2023-08-08T05:02:40;1.20;;;1.20;;
6037;SDS011;3047;42.600;23.470;2023-08-08T05:05:07;1.73;;;1.73;;
6037;SDS011;3047;42.600;23.470;2023-08-08T05:07:36;1.10;;;1.10;;
6037;SDS011;3047;42.600;23.470;2023-08-08T05:10:03;1.47;;;1.47;;
6037;SDS011;3047;42.600;23.470;2023-08-08T05:12:30;1.27;;;1.27;;
6037;SDS011;3047;42.600;23.470;2023-08-08T05:14:57;1.07;;;1.07;;
6037;SDS011;3047;42.600;23.470;2023-08-08T05:17:24;1.10;;;1.10;;
6037;SDS011;3047;42.600;23.470;2023-08-08T05:19:51;1.10;;;1.10;;
6037;SDS011;3047;42.600;23.470;2023-08-08T05:22:17;1.77;;;1.77;;
6037;SDS011;3047;42.600;23.470;2023-08-08T05:24:45;1.40;;;1.40;;
6037;SDS011;3047;42.600;23.470;2023-08-08T05:27:12;1.20;;;1.20;;
6037;SDS011;3047;42.600;23.470;2023-08-08T05:29:39;1.10;;;1.10;;
6037;SDS011;3047;42.600;23.470;2023-08-08T05:32:06;1.63;;;1.63;;
6037;SDS011;3047;42.600;23.470;2023-08-08T05:34:33;1.45;;;1.45;;
6037;SDS011;3047;42.600;23.470;2023-08-08T05:37:00;1.27;;;1.27;;
6037;SDS011;3047;42.600;23.470;2023-08-08T05:39:29;1.77;;;1.77;;
6037;SDS011;3047;42.600;23.470;2023-08-08T05:41:57;1.13;;;1.13;;
6037;SDS011;3047;42.600;23.470;2023-08-08T05:44:24;1.40;;;1.40;;
6037;SDS011;3047;42.600;23.470;2023-08-08T05:46:51;1.45;;;1.45;;
6037;SDS011;3047;42.600;23.470;2023-08-08T05:49:18;0.98;;;0.98;;
6037;SDS011;3047;42.600;23.470;2023-08-08T05:51:44;1.30;;;1.30;;
6037;SDS011;3047;42.600;23.470;2023-08-08T05:54:11;1.30;;;1.30;;
6037;SDS011;3047;42.600;23.470;2023-08-08T05:56:38;1.27;;;1.27;;
6037;SDS011;3047;42.600;23.470;2023-08-08T05:59:06;1.35;;;1.33;;
6037;SDS011;3047;42.600;23.470;2023-08-08T06:01:33;1.30;;;1.30;;
6037;SDS011;3047;42.600;23.470;2023-08-08T06:04:00;1.08;;;1.08;;
6037;SDS011;3047;42.600;23.470;2023-08-08T06:06:28;1.17;;;1.17;;
6037;SDS011;3047;42.600;23.470;2023-08-08T06:08:55;1.35;;;1.35;;
6037;SDS011;3047;42.600;23.470;2023-08-08T06:11:22;1.45;;;1.45;;
6037;SDS011;3047;42.600;23.470;2023-08-08T06:13:48;1.08;;;1.08;;
6037;SDS011;3047;42.600;23.470;2023-08-08T06:16:16;1.58;;;1.58;;
6037;SDS011;3047;42.600;23.470;2023-08-08T06:18:43;1.30;;;1.30;;
6037;SDS011;3047;42.600;23.470;2023-08-08T06:21:10;1.60;;;1.60;;
6037;SDS011;3047;42.600;23.470;2023-08-08T06:23:37;1.42;;;1.42;;
6037;SDS011;3047;42.600;23.470;2023-08-08T06:26:04;1.40;;;1.40;;
6037;SDS011;3047;42.600;23.470;2023-08-08T06:28:30;1.55;;;1.55;;
6037;SDS011;3047;42.600;23.470;2023-08-08T06:30:57;1.25;;;1.25;;
6037;SDS011;3047;42.600;23.470;2023-08-08T06:33:25;1.77;;;1.77;;
6037;SDS011;3047;42.600;23.470;2023-08-08T06:35:52;1.02;;;1.02;;
6037;SDS011;3047;42.600;23.470;2023-08-08T06:38:19;1.23;;;1.23;;
6037;SDS011;3047;42.600;23.470;2023-08-08T06:40:45;1.48;;;1.48;;
6037;SDS011;3047;42.600;23.470;2023-08-08T06:43:12;1.52;;;1.20;;
6037;SDS011;3047;42.600;23.470;2023-08-08T06:45:39;1.15;;;1.15;;
6037;SDS011;3047;42.600;23.470;2023-08-08T06:48:09;1.30;;;1.30;;
6037;SDS011;3047;42.600;23.470;2023-08-08T06:50:41;1.35;;;1.35;;
6037;SDS011;3047;42.600;23.470;2023-08-08T06:53:07;1.40;;;1.40;;
6037;SDS011;3047;42.600;23.470;2023-08-08T06:55:34;1.33;;;1.33;;
6037;SDS011;3047;42.600;23.470;2023-08-08T06:58:01;1.50;;;1.50;;
6037;SDS011;3047;42.600;23.470;2023-08-08T07:00:28;1.35;;;1.33;;
6037;SDS011;3047;42.600;23.470;2023-08-08T07:02:55;0.95;;;0.95;;
6037;SDS011;3047;42.600;23.470;2023-08-08T07:05:22;1.55;;;1.55;;
6037;SDS011;3047;42.600;23.470;2023-08-08T07:07:50;1.13;;;1.13;;
6037;SDS011;3047;42.600;23.470;2023-08-08T07:10:17;1.98;;;1.98;;
6037;SDS011;3047;42.600;23.470;2023-08-08T07:12:45;1.40;;;1.40;;
6037;SDS011;3047;42.600;23.470;2023-08-08T07:15:11;1.40;;;1.40;;
6037;SDS011;3047;42.600;23.470;2023-08-08T07:17:38;1.38;;;1.38;;
6037;SDS011;3047;42.600;23.470;2023-08-08T07:20:05;1.35;;;1.35;;
6037;SDS011;3047;42.600;23.470;2023-08-08T07:22:33;1.60;;;1.60;;
6037;SDS011;3047;42.600;23.470;2023-08-08T07:25:02;1.33;;;1.33;;
6037;SDS011;3047;42.600;23.470;2023-08-08T07:27:29;1.38;;;1.38;;
6037;SDS011;3047;42.600;23.470;2023-08-08T07:29:56;1.65;;;1.65;;
6037;SDS011;3047;42.600;23.470;2023-08-08T07:32:24;1.23;;;1.23;;
6037;SDS011;3047;42.600;23.470;2023-08-08T07:34:50;2.33;;;2.33;;
6037;SDS011;3047;42.600;23.470;2023-08-08T07:37:17;2.70;;;2.65;;
6037;SDS011;3047;42.600;23.470;2023-08-08T07:39:44;2.80;;;2.70;;
6037;SDS011;3047;42.600;23.470;2023-08-08T07:42:12;2.05;;;1.95;;
6037;SDS011;3047;42.600;23.470;2023-08-08T07:44:39;1.83;;;1.83;;
6037;SDS011;3047;42.600;23.470;2023-08-08T07:47:06;2.10;;;2.10;;
6037;SDS011;3047;42.600;23.470;2023-08-08T07:49:32;1.45;;;1.45;;
6037;SDS011;3047;42.600;23.470;2023-08-08T07:51:59;1.40;;;1.40;;
6037;SDS011;3047;42.600;23.470;2023-08-08T07:54:26;1.10;;;1.10;;
6037;SDS011;3047;42.600;23.470;2023-08-08T07:56:52;1.30;;;1.30;;
6037;SDS011;3047;42.600;23.470;2023-08-08T07:59:20;2.10;;;2.00;;
6037;SDS011;3047;42.600;23.470;2023-08-08T08:01:47;1.92;;;1.92;;
6037;SDS011;3047;42.600;23.470;2023-08-08T08:04:14;1.40;;;1.40;;
6037;SDS011;3047;42.600;23.470;2023-08-08T08:06:41;1.40;;;1.40;;
6037;SDS011;3047;42.600;23.470;2023-08-08T08:09:08;1.05;;;1.05;;
6037;SDS011;3047;42.600;23.470;2023-08-08T08:11:34;1.63;;;1.63;;
6037;SDS011;3047;42.600;23.470;2023-08-08T08:14:01;1.30;;;1.30;;
6037;SDS011;3047;42.600;23.470;2023-08-08T08:16:30;1.40;;;1.40;;
6037;SDS011;3047;42.600;23.470;2023-08-08T08:18:57;1.80;;;1.80;;
6037;SDS011;3047;42.600;23.470;2023-08-08T08:21:23;3.00;;;2.90;;
6037;SDS011;3047;42.600;23.470;2023-08-08T08:23:50;1.90;;;1.90;;
6037;SDS011;3047;42.600;23.470;2023-08-08T08:26:17;2.30;;;2.30;;
6037;SDS011;3047;42.600;23.470;2023-08-08T08:28:44;3.13;;;3.03;;
6037;SDS011;3047;42.600;23.470;2023-08-08T08:31:10;2.20;;;2.20;;
6037;SDS011;3047;42.600;23.470;2023-08-08T08:33:38;2.08;;;2.08;;
6037;SDS011;3047;42.600;23.470;2023-08-08T08:36:05;2.45;;;2.45;;
6037;SDS011;3047;42.600;23.470;2023-08-08T08:38:32;2.00;;;2.00;;
6037;SDS011;3047;42.600;23.470;2023-08-08T08:40:59;1.98;;;1.98;;
6037;SDS011;3047;42.600;23.470;2023-08-08T08:43:28;1.80;;;1.80;;
6037;SDS011;3047;42.600;23.470;2023-08-08T08:45:57;2.22;;;2.22;;
6037;SDS011;3047;42.600;23.470;2023-08-08T08:48:27;2.20;;;2.20;;
6037;SDS011;3047;42.600;23.470;2023-08-08T08:50:55;2.40;;;2.40;;
6037;SDS011;3047;42.600;23.470;2023-08-08T08:53:24;2.78;;;2.67;;
6037;SDS011;3047;42.600;23.470;2023-08-08T08:55:51;2.70;;;2.60;;
6037;SDS011;3047;42.600;23.470;2023-08-08T08:58:18;1.67;;;1.67;;
6037;SDS011;3047;42.600;23.470;2023-08-08T09:00:47;2.30;;;2.30;;
6037;SDS011;3047;42.600;23.470;2023-08-08T09:03:14;2.60;;;2.50;;
6037;SDS011;3047;42.600;23.470;2023-08-08T09:05:42;2.35;;;2.35;;
6037;SDS011;3047;42.600;23.470;2023-08-08T09:08:14;2.55;;;2.50;;
6037;SDS011;3047;42.600;23.470;2023-08-08T09:10:43;2.90;;;2.80;;
6037;SDS011;3047;42.600;23.470;2023-08-08T09:13:10;2.20;;;2.20;;
6037;SDS011;3047;42.600;23.470;2023-08-08T09:15:37;2.72;;;2.63;;
6037;SDS011;3047;42.600;23.470;2023-08-08T09:18:04;2.35;;;2.35;;
6037;SDS011;3047;42.600;23.470;2023-08-08T09:20:33;2.10;;;2.10;;
6037;SDS011;3047;42.600;23.470;2023-08-08T09:23:00;2.55;;;2.47;;
6037;SDS011;3047;42.600;23.470;2023-08-08T09:25:28;2.15;;;2.15;;
6037;SDS011;3047;42.600;23.470;2023-08-08T09:27:55;2.75;;;2.65;;
6037;SDS011;3047;42.600;23.470;2023-08-08T09:30:22;2.40;;;2.40;;
6037;SDS011;3047;42.600;23.470;2023-08-08T09:32:49;2.60;;;2.50;;
6037;SDS011;3047;42.600;23.470;2023-08-08T09:35:15;2.90;;;2.80;;
6037;SDS011;3047;42.600;23.470;2023-08-08T09:37:44;2.20;;;2.20;;
6037;SDS011;3047;42.600;23.470;2023-08-08T09:40:10;2.10;;;2.10;;
6037;SDS011;3047;42.600;23.470;2023-08-08T09:42:39;3.03;;;2.92;;
6037;SDS011;3047;42.600;23.470;2023-08-08T09:45:07;2.30;;;2.30;;
6037;SDS011;3047;42.600;23.470;2023-08-08T09:47:35;2.90;;;2.80;;
6037;SDS011;3047;42.600;23.470;2023-08-08T09:50:03;2.60;;;2.60;;
6037;SDS011;3047;42.600;23.470;2023-08-08T09:52:32;2.42;;;2.42;;
6037;SDS011;3047;42.600;23.470;2023-08-08T09:55:00;2.28;;;2.28;;
6037;SDS011;3047;42.600;23.470;2023-08-08T09:57:27;2.88;;;2.78;;
6037;SDS011;3047;42.600;23.470;2023-08-08T09:59:56;2.55;;;2.45;;
6037;SDS011;3047;42.600;23.470;2023-08-08T10:02:23;2.33;;;2.33;;
6037;SDS011;3047;42.600;23.470;2023-08-08T10:04:51;2.70;;;2.60;;
6037;SDS011;3047;42.600;23.470;2023-08-08T10:07:18;2.90;;;2.80;;
6037;SDS011;3047;42.600;23.470;2023-08-08T10:09:46;2.20;;;2.20;;
6037;SDS011;3047;42.600;23.470;2023-08-08T10:12:13;2.72;;;2.63;;
6037;SDS011;3047;42.600;23.470;2023-08-08T10:14:41;3.15;;;3.05;;
6037;SDS011;3047;42.600;23.470;2023-08-08T10:17:12;2.65;;;2.55;;
6037;SDS011;3047;42.600;23.470;2023-08-08T10:19:49;2.50;;;2.50;;
6037;SDS011;3047;42.600;23.470;2023-08-08T10:22:19;3.00;;;2.90;;
6037;SDS011;3047;42.600;23.470;2023-08-08T10:24:50;2.10;;;2.10;;
6037;SDS011;3047;42.600;23.470;2023-08-08T10:27:26;2.50;;;2.40;;
6037;SDS011;3047;42.600;23.470;2023-08-08T10:30:00;2.80;;;2.70;;
6037;SDS011;3047;42.600;23.470;2023-08-08T10:32:29;3.15;;;3.05;;
6037;SDS011;3047;42.600;23.470;2023-08-08T10:35:05;2.65;;;2.55;;
6037;SDS011;3047;42.600;23.470;2023-08-08T10:37:33;2.38;;;2.38;;
6037;SDS011;3047;42.600;23.470;2023-08-08T10:40:00;3.00;;;2.80;;
6037;SDS011;3047;42.600;23.470;2023-08-08T10:42:30;1.95;;;1.85;;
6037;SDS011;3047;42.600;23.470;2023-08-08T10:44:58;3.08;;;2.97;;
6037;SDS011;3047;42.600;23.470;2023-08-08T10:47:26;2.72;;;2.63;;
6037;SDS011;3047;42.600;23.470;2023-08-08T10:50:04;2.45;;;2.35;;
6037;SDS011;3047;42.600;23.470;2023-08-08T10:52:37;2.75;;;2.65;;
6037;SDS011;3047;42.600;23.470;2023-08-08T10:55:05;3.50;;;3.40;;
6037;SDS011;3047;42.600;23.470;2023-08-08T10:57:32;2.85;;;2.75;;
6037;SDS011;3047;42.600;23.470;2023-08-08T11:02:44;2.42;;;2.33;;
6037;SDS011;3047;42.600;23.470;2023-08-08T11:05:13;2.90;;;2.80;;
6037;SDS011;3047;42.600;23.470;2023-08-08T11:07:40;2.50;;;2.40;;
6037;SDS011;3047;42.600;23.470;2023-08-08T11:10:09;2.42;;;2.38;;
6037;SDS011;3047;42.600;23.470;2023-08-08T11:12:36;2.05;;;2.05;;
6037;SDS011;3047;42.600;23.470;2023-08-08T11:15:03;2.65;;;2.55;;
6037;SDS011;3047;42.600;23.470;2023-08-08T11:17:30;2.42;;;2.38;;
6037;SDS011;3047;42.600;23.470;2023-08-08T11:19:58;2.65;;;2.55;;
6037;SDS011;3047;42.600;23.470;2023-08-08T11:22:28;2.80;;;2.70;;
6037;SDS011;3047;42.600;23.470;2023-08-08T11:24:54;2.88;;;2.78;;
6037;SDS011;3047;42.600;23.470;2023-08-08T11:27:27;2.90;;;2.80;;
6037;SDS011;3047;42.600;23.470;2023-08-08T11:29:55;2.70;;;2.60;;
6037;SDS011;3047;42.600;23.470;2023-08-08T11:32:22;2.88;;;2.78;;
6037;SDS011;3047;42.600;23.470;2023-08-08T11:34:50;3.47;;;3.38;;
6037;SDS011;3047;42.600;23.470;2023-08-08T11:37:17;2.83;;;2.72;;
6037;SDS011;3047;42.600;23.470;2023-08-08T11:39:45;3.53;;;3.42;;
6037;SDS011;3047;42.600;23.470;2023-08-08T11:42:12;2.78;;;2.67;;
6037;SDS011;3047;42.600;23.470;2023-08-08T11:44:40;3.05;;;2.95;;
6037;SDS011;3047;42.600;23.470;2023-08-08T11:47:07;2.25;;;2.15;;
6037;SDS011;3047;42.600;23.470;2023-08-08T11:49:39;3.40;;;3.30;;
6037;SDS011;3047;42.600;23.470;2023-08-08T11:52:07;3.03;;;2.92;;
6037;SDS011;3047;42.600;23.470;2023-08-08T11:54:36;3.05;;;2.95;;
6037;SDS011;3047;42.600;23.470;2023-08-08T11:57:04;2.58;;;2.50;;
6037;SDS011;3047;42.600;23.470;2023-08-08T11:59:31;3.42;;;3.33;;
6037;SDS011;3047;42.600;23.470;2023-08-08T12:01:58;2.70;;;2.60;;
6037;SDS011;3047;42.600;23.470;2023-08-08T12:04:25;2.92;;;2.83;;
6037;SDS011;3047;42.600;23.470;2023-08-08T12:06:59;2.55;;;2.45;;
6037;SDS011;3047;42.600;23.470;2023-08-08T12:09:31;2.78;;;2.67;;
6037;SDS011;3047;42.600;23.470;2023-08-08T12:12:00;2.60;;;2.53;;
6037;SDS011;3047;42.600;23.470;2023-08-08T12:14:31;2.83;;;2.72;;
6037;SDS011;3047;42.600;23.470;2023-08-08T12:17:03;3.17;;;3.08;;
6037;SDS011;3047;42.600;23.470;2023-08-08T12:19:30;2.88;;;2.78;;
6037;SDS011;3047;42.600;23.470;2023-08-08T12:21:57;2.63;;;2.53;;
6037;SDS011;3047;42.600;23.470;2023-08-08T12:24:24;3.20;;;3.10;;
6037;SDS011;3047;42.600;23.470;2023-08-08T12:26:50;2.67;;;2.58;;
6037;SDS011;3047;42.600;23.470;2023-08-08T12:29:17;3.60;;;3.50;;
6037;SDS011;3047;42.600;23.470;2023-08-08T12:31:46;2.55;;;2.47;;
6037;SDS011;3047;42.600;23.470;2023-08-08T12:34:12;2.85;;;2.75;;
6037;SDS011;3047;42.600;23.470;2023-08-08T12:36:39;2.72;;;2.63;;
6037;SDS011;3047;42.600;23.470;2023-08-08T12:39:06;2.58;;;2.47;;
6037;SDS011;3047;42.600;23.470;2023-08-08T12:41:33;2.47;;;2.38;;
6037;SDS011;3047;42.600;23.470;2023-08-08T12:43:59;2.83;;;2.72;;
6037;SDS011;3047;42.600;23.470;2023-08-08T12:46:26;3.00;;;2.90;;
6037;SDS011;3047;42.600;23.470;2023-08-08T12:48:54;2.30;;;2.30;;
6037;SDS011;3047;42.600;23.470;2023-08-08T12:51:21;2.47;;;2.40;;
6037;SDS011;3047;42.600;23.470;2023-08-08T12:53:48;2.55;;;2.47;;
6037;SDS011;3047;42.600;23.470;2023-08-08T12:56:16;2.85;;;2.75;;
6037;SDS011;3047;42.600;23.470;2023-08-08T12:58:43;2.42;;;2.42;;
6037;SDS011;3047;42.600;23.470;2023-08-08T13:01:09;2.85;;;2.75;;
6037;SDS011;3047;42.600;23.470;2023-08-08T13:03:37;2.65;;;2.55;;
6037;SDS011;3047;42.600;23.470;2023-08-08T13:06:06;2.38;;;2.38;;
6037;SDS011;3047;42.600;23.470;2023-08-08T13:08:36;2.80;;;2.70;;
6037;SDS011;3047;42.600;23.470;2023-08-08T13:11:03;2.92;;;2.83;;
6037;SDS011;3047;42.600;23.470;2023-08-08T13:13:30;2.67;;;2.58;;
6037;SDS011;3047;42.600;23.470;2023-08-08T13:15:57;2.55;;;2.50;;
6037;SDS011;3047;42.600;23.470;2023-08-08T13:18:23;2.60;;;2.50;;
6037;SDS011;3047;42.600;23.470;2023-08-08T13:20:50;2.47;;;2.38;;
6037;SDS011;3047;42.600;23.470;2023-08-08T13:23:18;2.35;;;2.25;;
6037;SDS011;3047;42.600;23.470;2023-08-08T13:25:45;2.20;;;2.20;;
6037;SDS011;3047;42.600;23.470;2023-08-08T13:28:12;2.25;;;2.25;;
6037;SDS011;3047;42.600;23.470;2023-08-08T13:30:45;2.30;;;2.30;;
6037;SDS011;3047;42.600;23.470;2023-08-08T13:33:11;2.47;;;2.40;;
6037;SDS011;3047;42.600;23.470;2023-08-08T13:35:38;2.40;;;2.38;;
6037;SDS011;3047;42.600;23.470;2023-08-08T13:38:05;2.20;;;2.20;;
6037;SDS011;3047;42.600;23.470;2023-08-08T13:40:34;2.05;;;2.05;;
6037;SDS011;3047;42.600;23.470;2023-08-08T13:43:01;2.53;;;2.42;;
6037;SDS011;3047;42.600;23.470;2023-08-08T13:45:27;2.47;;;2.40;;
6037;SDS011;3047;42.600;23.470;2023-08-08T13:47:54;2.60;;;2.50;;
6037;SDS011;3047;42.600;23.470;2023-08-08T13:50:21;2.55;;;2.45;;
6037;SDS011;3047;42.600;23.470;2023-08-08T13:52:48;2.42;;;2.42;;
6037;SDS011;3047;42.600;23.470;2023-08-08T13:55:14;3.17;;;3.08;;
6037;SDS011;3047;42.600;23.470;2023-08-08T13:57:43;2.75;;;2.65;;
6037;SDS011;3047;42.600;23.470;2023-08-08T14:00:10;2.60;;;2.50;;
6037;SDS011;3047;42.600;23.470;2023-08-08T14:02:38;2.33;;;2.33;;
6037;SDS011;3047;42.600;23.470;2023-08-08T14:05:05;3.05;;;2.85;;
6037;SDS011;3047;42.600;23.470;2023-08-08T14:07:32;3.00;;;2.90;;
6037;SDS011;3047;42.600;23.470;2023-08-08T14:10:00;3.05;;;2.95;;
6037;SDS011;3047;42.600;23.470;2023-08-08T14:12:27;2.92;;;2.83;;
6037;SDS011;3047;42.600;23.470;2023-08-08T14:14:55;2.65;;;2.55;;
6037;SDS011;3047;42.600;23.470;2023-08-08T14:17:22;3.30;;;3.20;;
6037;SDS011;3047;42.600;23.470;2023-08-08T14:19:48;2.78;;;2.67;;
6037;SDS011;3047;42.600;23.470;2023-08-08T14:22:15;3.83;;;3.63;;
6037;SDS011;3047;42.600;23.470;2023-08-08T14:24:42;3.00;;;2.90;;
6037;SDS011;3047;42.600;23.470;2023-08-08T14:27:09;2.90;;;2.80;;
6037;SDS011;3047;42.600;23.470;2023-08-08T14:29:35;3.35;;;3.25;;
6037;SDS011;3047;42.600;23.470;2023-08-08T14:32:04;2.85;;;2.75;;
6037;SDS011;3047;42.600;23.470;2023-08-08T14:34:31;2.67;;;2.58;;
6037;SDS011;3047;42.600;23.470;2023-08-08T14:36:59;2.40;;;2.40;;
6037;SDS011;3047;42.600;23.470;2023-08-08T14:39:26;2.85;;;2.75;;
6037;SDS011;3047;42.600;23.470;2023-08-08T14:41:53;2.30;;;2.30;;
6037;SDS011;3047;42.600;23.470;2023-08-08T14:44:20;2.08;;;2.08;;
6037;SDS011;3047;42.600;23.470;2023-08-08T14:46:47;2.10;;;2.10;;
6037;SDS011;3047;42.600;23.470;2023-08-08T14:49:15;2.25;;;2.20;;
6037;SDS011;3047;42.600;23.470;2023-08-08T14:51:42;2.38;;;2.30;;
6037;SDS011;3047;42.600;23.470;2023-08-08T14:54:09;2.80;;;2.70;;
6037;SDS011;3047;42.600;23.470;2023-08-08T14:56:36;2.58;;;2.38;;
6037;SDS011;3047;42.600;23.470;2023-08-08T14:59:02;2.55;;;2.45;;
6037;SDS011;3047;42.600;23.470;2023-08-08T15:01:29;2.20;;;2.20;;
6037;SDS011;3047;42.600;23.470;2023-08-08T15:03:56;2.47;;;2.47;;